sensor_id;sensor_type;location;lat;lon;timestamp;temperature;humidity
58519;DHT22;44310;48.106;12.008;2023-02-03T00:00:47;14.10;89.60
58519;DHT22;44310;48.106;12.008;2023-02-03T00:03:14;14.10;89.70
58519;DHT22;44310;48.106;12.008;2023-02-03T00:05:41;14.20;90.00
58519;DHT22;44310;48.106;12.008;2023-02-03T00:08:09;14.10;90.00
58519;DHT22;44310;48.106;12.008;2023-02-03T00:10:37;15.00;90.20
58519;DHT22;44310;48.106;12.008;2023-02-03T00:13:06;14.10;90.30
58519;DHT22;44310;48.106;12.008;2023-02-03T00:15:34;14.50;90.40
58519;DHT22;44310;48.106;12.008;2023-02-03T00:18:01;14.20;90.30
58519;DHT22;44310;48.106;12.008;2023-02-03T00:20:28;14.40;90.20
58519;DHT22;44310;48.106;12.008;2023-02-03T00:23:05;14.20;90.00
58519;DHT22;44310;48.106;12.008;2023-02-03T00:25:33;13.60;89.60
58519;DHT22;44310;48.106;12.008;2023-02-03T00:28:00;14.20;89.80
58519;DHT22;44310;48.106;12.008;2023-02-03T00:30:27;14.20;89.90
58519;DHT22;44310;48.106;12.008;2023-02-03T00:32:54;14.80;90.00
58519;DHT22;44310;48.106;12.008;2023-02-03T00:35:22;14.20;89.70
58519;DHT22;44310;48.106;12.008;2023-02-03T00:37:54;14.20;89.90
58519;DHT22;44310;48.106;12.008;2023-02-03T00:40:23;14.20;89.70
58519;DHT22;44310;48.106;12.008;2023-02-03T00:42:51;14.20;89.50
58519;DHT22;44310;48.106;12.008;2023-02-03T00:45:18;14.20;89.60
58519;DHT22;44310;48.106;12.008;2023-02-03T00:47:46;14.20;89.90
58519;DHT22;44310;48.106;12.008;2023-02-03T00:50:13;14.00;89.80
58519;DHT22;44310;48.106;12.008;2023-02-03T00:52:40;14.20;89.70
58519;DHT22;44310;48.106;12.008;2023-02-03T00:55:07;14.20;89.50
58519;DHT22;44310;48.106;12.008;2023-02-03T00:57:35;14.40;89.60
58519;DHT22;44310;48.106;12.008;2023-02-03T01:00:03;14.20;89.40
58519;DHT22;44310;48.106;12.008;2023-02-03T01:02:30;14.20;89.80
58519;DHT22;44310;48.106;12.008;2023-02-03T01:04:57;15.10;90.00
58519;DHT22;44310;48.106;12.008;2023-02-03T01:07:24;14.90;90.00
58519;DHT22;44310;48.106;12.008;2023-02-03T01:09:51;14.80;90.00
58519;DHT22;44310;48.106;12.008;2023-02-03T01:12:19;14.30;89.80
58519;DHT22;44310;48.106;12.008;2023-02-03T01:14:46;14.30;89.70
58519;DHT22;44310;48.106;12.008;2023-02-03T01:17:13;14.20;89.50
58519;DHT22;44310;48.106;12.008;2023-02-03T01:19:40;14.60;90.00
58519;DHT22;44310;48.106;12.008;2023-02-03T01:22:07;15.00;90.10
58519;DHT22;44310;48.106;12.008;2023-02-03T01:24:34;14.60;89.80
58519;DHT22;44310;48.106;12.008;2023-02-03T01:27:01;14.20;89.70
58519;DHT22;44310;48.106;12.008;2023-02-03T01:29:29;14.20;89.40
58519;DHT22;44310;48.106;12.008;2023-02-03T01:31:56;14.20;89.20
58519;DHT22;44310;48.106;12.008;2023-02-03T01:34:23;14.20;89.00
58519;DHT22;44310;48.106;12.008;2023-02-03T01:36:50;14.10;88.90
58519;DHT22;44310;48.106;12.008;2023-02-03T01:39:17;14.00;88.90
58519;DHT22;44310;48.106;12.008;2023-02-03T01:41:45;14.10;88.90
58519;DHT22;44310;48.106;12.008;2023-02-03T01:44:44;14.10;88.80
58519;DHT22;44310;48.106;12.008;2023-02-03T01:50:07;13.90;88.50
58519;DHT22;44310;48.106;12.008;2023-02-03T01:52:37;14.10;89.40
58519;DHT22;44310;48.106;12.008;2023-02-03T01:55:09;14.20;89.70
58519;DHT22;44310;48.106;12.008;2023-02-03T01:57:44;14.00;90.10
58519;DHT22;44310;48.106;12.008;2023-02-03T02:00:13;14.20;90.20
58519;DHT22;44310;48.106;12.008;2023-02-03T02:02:45;14.30;90.20
58519;DHT22;44310;48.106;12.008;2023-02-03T02:08:06;14.30;90.20
58519;DHT22;44310;48.106;12.008;2023-02-03T02:10:34;13.60;90.10
58519;DHT22;44310;48.106;12.008;2023-02-03T02:13:02;14.30;90.30
58519;DHT22;44310;48.106;12.008;2023-02-03T02:21:56;14.30;90.40
58519;DHT22;44310;48.106;12.008;2023-02-03T02:24:45;14.30;90.50
58519;DHT22;44310;48.106;12.008;2023-02-03T02:30:04;14.30;90.40
58519;DHT22;44310;48.106;12.008;2023-02-03T02:32:52;14.20;90.30
58519;DHT22;44310;48.106;12.008;2023-02-03T02:38:54;14.20;90.20
58519;DHT22;44310;48.106;12.008;2023-02-03T02:41:43;14.10;90.10
58519;DHT22;44310;48.106;12.008;2023-02-03T02:46:57;13.90;90.10
58519;DHT22;44310;48.106;12.008;2023-02-03T02:49:33;14.10;90.10
58519;DHT22;44310;48.106;12.008;2023-02-03T02:52:04;14.10;90.10
58519;DHT22;44310;48.106;12.008;2023-02-03T02:54:37;14.10;90.10
58519;DHT22;44310;48.106;12.008;2023-02-03T02:57:08;14.20;90.30
58519;DHT22;44310;48.106;12.008;2023-02-03T02:59:36;14.10;90.30
58519;DHT22;44310;48.106;12.008;2023-02-03T03:02:03;14.10;90.40
58519;DHT22;44310;48.106;12.008;2023-02-03T03:04:33;14.30;90.80
58519;DHT22;44310;48.106;12.008;2023-02-03T03:07:13;14.30;90.80
58519;DHT22;44310;48.106;12.008;2023-02-03T03:09:46;14.30;90.70
58519;DHT22;44310;48.106;12.008;2023-02-03T03:12:20;14.30;90.70
58519;DHT22;44310;48.106;12.008;2023-02-03T03:14:53;14.20;90.60
58519;DHT22;44310;48.106;12.008;2023-02-03T03:17:29;14.40;90.60
58519;DHT22;44310;48.106;12.008;2023-02-03T03:20:01;14.00;90.60
58519;DHT22;44310;48.106;12.008;2023-02-03T03:22:38;14.30;90.60
58519;DHT22;44310;48.106;12.008;2023-02-03T03:25:16;14.20;90.50
58519;DHT22;44310;48.106;12.008;2023-02-03T03:27:48;13.40;90.20
58519;DHT22;44310;48.106;12.008;2023-02-03T03:30:17;14.20;90.30
58519;DHT22;44310;48.106;12.008;2023-02-03T03:32:46;14.20;90.20
58519;DHT22;44310;48.106;12.008;2023-02-03T03:35:14;13.70;90.00
58519;DHT22;44310;48.106;12.008;2023-02-03T03:37:45;14.20;90.10
58519;DHT22;44310;48.106;12.008;2023-02-03T03:40:19;14.20;90.00
58519;DHT22;44310;48.106;12.008;2023-02-03T03:42:51;14.20;89.90
58519;DHT22;44310;48.106;12.008;2023-02-03T03:48:18;14.20;89.90
58519;DHT22;44310;48.106;12.008;2023-02-03T03:50:54;14.20;89.70
58519;DHT22;44310;48.106;12.008;2023-02-03T03:53:23;14.20;89.40
58519;DHT22;44310;48.106;12.008;2023-02-03T03:55:53;14.20;89.40
58519;DHT22;44310;48.106;12.008;2023-02-03T03:58:29;14.20;89.40
58519;DHT22;44310;48.106;12.008;2023-02-03T04:01:02;14.20;89.40
58519;DHT22;44310;48.106;12.008;2023-02-03T04:03:38;14.20;89.60
58519;DHT22;44310;48.106;12.008;2023-02-03T04:06:06;14.20;89.60
58519;DHT22;44310;48.106;12.008;2023-02-03T04:08:33;14.20;89.50
58519;DHT22;44310;48.106;12.008;2023-02-03T04:11:00;14.20;89.70
58519;DHT22;44310;48.106;12.008;2023-02-03T04:13:27;14.20;89.80
58519;DHT22;44310;48.106;12.008;2023-02-03T04:15:54;14.20;89.80
58519;DHT22;44310;48.106;12.008;2023-02-03T04:18:22;14.20;89.70
58519;DHT22;44310;48.106;12.008;2023-02-03T04:20:49;14.20;89.50
58519;DHT22;44310;48.106;12.008;2023-02-03T04:23:16;14.20;89.30
58519;DHT22;44310;48.106;12.008;2023-02-03T04:25:43;14.20;89.10
58519;DHT22;44310;48.106;12.008;2023-02-03T04:28:10;14.20;89.20
58519;DHT22;44310;48.106;12.008;2023-02-03T04:30:37;14.20;89.00
58519;DHT22;44310;48.106;12.008;2023-02-03T04:33:04;13.90;88.60
58519;DHT22;44310;48.106;12.008;2023-02-03T04:35:32;14.10;88.60
58519;DHT22;44310;48.106;12.008;2023-02-03T04:37:59;14.10;88.50
58519;DHT22;44310;48.106;12.008;2023-02-03T04:40:26;13.60;88.20
58519;DHT22;44310;48.106;12.008;2023-02-03T04:42:53;14.20;88.70
58519;DHT22;44310;48.106;12.008;2023-02-03T04:45:20;14.00;88.60
58519;DHT22;44310;48.106;12.008;2023-02-03T04:47:50;14.20;88.80
58519;DHT22;44310;48.106;12.008;2023-02-03T04:50:20;14.10;89.00
58519;DHT22;44310;48.106;12.008;2023-02-03T04:52:47;13.80;88.90
58519;DHT22;44310;48.106;12.008;2023-02-03T04:55:14;14.10;89.10
58519;DHT22;44310;48.106;12.008;2023-02-03T04:57:42;14.20;89.10
58519;DHT22;44310;48.106;12.008;2023-02-03T05:00:09;14.20;89.00
58519;DHT22;44310;48.106;12.008;2023-02-03T05:02:37;14.20;89.00
58519;DHT22;44310;48.106;12.008;2023-02-03T05:05:04;14.20;89.10
58519;DHT22;44310;48.106;12.008;2023-02-03T05:07:31;14.20;89.40
58519;DHT22;44310;48.106;12.008;2023-02-03T05:09:58;14.20;90.10
58519;DHT22;44310;48.106;12.008;2023-02-03T05:12:25;14.20;90.10
58519;DHT22;44310;48.106;12.008;2023-02-03T05:14:52;13.50;89.80
58519;DHT22;44310;48.106;12.008;2023-02-03T05:17:19;14.30;90.00
58519;DHT22;44310;48.106;12.008;2023-02-03T05:19:46;15.00;90.30
58519;DHT22;44310;48.106;12.008;2023-02-03T05:22:13;14.30;90.10
58519;DHT22;44310;48.106;12.008;2023-02-03T05:24:41;14.30;90.10
58519;DHT22;44310;48.106;12.008;2023-02-03T05:27:08;14.40;90.10
58519;DHT22;44310;48.106;12.008;2023-02-03T05:29:35;14.00;90.00
58519;DHT22;44310;48.106;12.008;2023-02-03T05:32:02;14.30;90.10
58519;DHT22;44310;48.106;12.008;2023-02-03T05:34:29;14.30;90.10
58519;DHT22;44310;48.106;12.008;2023-02-03T05:36:56;14.30;90.20
58519;DHT22;44310;48.106;12.008;2023-02-03T05:39:24;14.30;90.20
58519;DHT22;44310;48.106;12.008;2023-02-03T05:41:51;14.30;90.20
58519;DHT22;44310;48.106;12.008;2023-02-03T05:44:23;14.30;90.20
58519;DHT22;44310;48.106;12.008;2023-02-03T05:46:52;14.10;90.10
58519;DHT22;44310;48.106;12.008;2023-02-03T05:49:20;14.00;89.70
58519;DHT22;44310;48.106;12.008;2023-02-03T05:51:50;14.20;89.50
58519;DHT22;44310;48.106;12.008;2023-02-03T05:54:18;14.00;89.30
58519;DHT22;44310;48.106;12.008;2023-02-03T05:56:45;14.20;89.30
58519;DHT22;44310;48.106;12.008;2023-02-03T05:59:12;14.10;89.20
58519;DHT22;44310;48.106;12.008;2023-02-03T06:01:39;14.00;89.10
58519;DHT22;44310;48.106;12.008;2023-02-03T06:04:06;14.10;89.10
58519;DHT22;44310;48.106;12.008;2023-02-03T06:06:33;14.20;89.20
58519;DHT22;44310;48.106;12.008;2023-02-03T06:09:03;14.20;89.10
58519;DHT22;44310;48.106;12.008;2023-02-03T06:11:31;14.20;89.00
58519;DHT22;44310;48.106;12.008;2023-02-03T06:13:59;14.20;89.40
58519;DHT22;44310;48.106;12.008;2023-02-03T06:16:27;14.20;88.60
58519;DHT22;44310;48.106;12.008;2023-02-03T06:18:55;14.20;89.00
58519;DHT22;44310;48.106;12.008;2023-02-03T06:21:27;14.30;89.70
58519;DHT22;44310;48.106;12.008;2023-02-03T06:23:54;14.30;89.50
58519;DHT22;44310;48.106;12.008;2023-02-03T06:26:22;14.30;89.30
58519;DHT22;44310;48.106;12.008;2023-02-03T06:28:50;14.30;89.20
58519;DHT22;44310;48.106;12.008;2023-02-03T06:31:17;14.30;89.20
58519;DHT22;44310;48.106;12.008;2023-02-03T06:33:44;14.30;89.20
58519;DHT22;44310;48.106;12.008;2023-02-03T06:36:11;14.30;89.10
58519;DHT22;44310;48.106;12.008;2023-02-03T06:38:38;14.30;89.20
58519;DHT22;44310;48.106;12.008;2023-02-03T06:41:06;14.00;89.00
58519;DHT22;44310;48.106;12.008;2023-02-03T06:43:33;14.30;89.00
58519;DHT22;44310;48.106;12.008;2023-02-03T06:46:01;14.60;89.10
58519;DHT22;44310;48.106;12.008;2023-02-03T06:48:28;14.30;88.90
58519;DHT22;44310;48.106;12.008;2023-02-03T06:50:55;14.30;88.80
58519;DHT22;44310;48.106;12.008;2023-02-03T06:53:22;14.30;88.70
58519;DHT22;44310;48.106;12.008;2023-02-03T06:55:49;14.30;88.60
58519;DHT22;44310;48.106;12.008;2023-02-03T06:58:17;14.30;88.50
58519;DHT22;44310;48.106;12.008;2023-02-03T07:00:44;14.30;88.40
58519;DHT22;44310;48.106;12.008;2023-02-03T07:03:11;14.30;88.10
58519;DHT22;44310;48.106;12.008;2023-02-03T07:05:38;14.30;87.90
58519;DHT22;44310;48.106;12.008;2023-02-03T07:08:06;14.30;87.60
58519;DHT22;44310;48.106;12.008;2023-02-03T07:10:33;14.30;87.50
58519;DHT22;44310;48.106;12.008;2023-02-03T07:13:02;14.30;87.30
58519;DHT22;44310;48.106;12.008;2023-02-03T07:15:30;14.30;87.20
58519;DHT22;44310;48.106;12.008;2023-02-03T07:17:57;14.30;86.90
58519;DHT22;44310;48.106;12.008;2023-02-03T07:20:24;14.30;86.80
58519;DHT22;44310;48.106;12.008;2023-02-03T07:22:53;14.30;86.70
58519;DHT22;44310;48.106;12.008;2023-02-03T07:25:22;14.30;86.40
58519;DHT22;44310;48.106;12.008;2023-02-03T07:27:50;14.30;86.50
58519;DHT22;44310;48.106;12.008;2023-02-03T07:30:17;14.30;86.50
58519;DHT22;44310;48.106;12.008;2023-02-03T07:32:48;14.30;86.50
58519;DHT22;44310;48.106;12.008;2023-02-03T07:35:16;14.30;86.30
58519;DHT22;44310;48.106;12.008;2023-02-03T07:37:44;15.50;86.70
58519;DHT22;44310;48.106;12.008;2023-02-03T07:40:12;14.30;86.30
58519;DHT22;44310;48.106;12.008;2023-02-03T07:42:44;14.30;86.30
58519;DHT22;44310;48.106;12.008;2023-02-03T07:45:13;14.20;86.60
58519;DHT22;44310;48.106;12.008;2023-02-03T07:47:42;14.80;87.40
58519;DHT22;44310;48.106;12.008;2023-02-03T07:50:10;14.40;87.40
58519;DHT22;44310;48.106;12.008;2023-02-03T07:52:37;14.40;87.30
58519;DHT22;44310;48.106;12.008;2023-02-03T07:55:05;14.40;87.40
58519;DHT22;44310;48.106;12.008;2023-02-03T07:57:32;14.40;87.40
58519;DHT22;44310;48.106;12.008;2023-02-03T07:59:59;14.40;87.60
58519;DHT22;44310;48.106;12.008;2023-02-03T08:02:26;14.40;87.80
58519;DHT22;44310;48.106;12.008;2023-02-03T08:04:53;14.40;87.80
58519;DHT22;44310;48.106;12.008;2023-02-03T08:07:23;14.40;87.80
58519;DHT22;44310;48.106;12.008;2023-02-03T08:09:51;14.40;87.80
58519;DHT22;44310;48.106;12.008;2023-02-03T08:12:18;14.40;87.60
58519;DHT22;44310;48.106;12.008;2023-02-03T08:14:45;14.30;87.40
58519;DHT22;44310;48.106;12.008;2023-02-03T08:17:12;14.40;87.40
58519;DHT22;44310;48.106;12.008;2023-02-03T08:19:39;14.30;87.60
58519;DHT22;44310;48.106;12.008;2023-02-03T08:22:06;14.30;87.60
58519;DHT22;44310;48.106;12.008;2023-02-03T08:24:33;14.30;87.60
58519;DHT22;44310;48.106;12.008;2023-02-03T08:27:00;13.90;87.50
58519;DHT22;44310;48.106;12.008;2023-02-03T08:29:27;14.40;87.70
58519;DHT22;44310;48.106;12.008;2023-02-03T08:31:54;14.40;87.60
58519;DHT22;44310;48.106;12.008;2023-02-03T08:34:24;14.30;87.40
58519;DHT22;44310;48.106;12.008;2023-02-03T08:36:51;14.30;87.30
58519;DHT22;44310;48.106;12.008;2023-02-03T08:39:18;14.40;87.70
58519;DHT22;44310;48.106;12.008;2023-02-03T08:41:45;14.30;87.30
58519;DHT22;44310;48.106;12.008;2023-02-03T08:44:13;14.30;87.20
58519;DHT22;44310;48.106;12.008;2023-02-03T08:46:40;14.30;87.20
58519;DHT22;44310;48.106;12.008;2023-02-03T08:49:10;14.30;87.20
58519;DHT22;44310;48.106;12.008;2023-02-03T08:51:37;14.00;86.80
58519;DHT22;44310;48.106;12.008;2023-02-03T08:54:04;14.30;86.80
58519;DHT22;44310;48.106;12.008;2023-02-03T08:56:32;14.10;86.50
58519;DHT22;44310;48.106;12.008;2023-02-03T08:59:00;14.30;86.60
58519;DHT22;44310;48.106;12.008;2023-02-03T09:01:27;14.30;86.60
58519;DHT22;44310;48.106;12.008;2023-02-03T09:03:54;14.40;87.20
58519;DHT22;44310;48.106;12.008;2023-02-03T09:06:21;14.40;86.90
58519;DHT22;44310;48.106;12.008;2023-02-03T09:08:52;14.30;87.00
58519;DHT22;44310;48.106;12.008;2023-02-03T09:11:19;14.40;87.20
58519;DHT22;44310;48.106;12.008;2023-02-03T09:13:46;14.10;87.20
58519;DHT22;44310;48.106;12.008;2023-02-03T09:16:16;14.40;87.30
58519;DHT22;44310;48.106;12.008;2023-02-03T09:18:45;14.40;87.30
58519;DHT22;44310;48.106;12.008;2023-02-03T09:21:13;14.40;87.30
58519;DHT22;44310;48.106;12.008;2023-02-03T09:24:01;13.90;87.10
58519;DHT22;44310;48.106;12.008;2023-02-03T09:26:28;13.60;86.70
58519;DHT22;44310;48.106;12.008;2023-02-03T09:28:56;14.40;87.00
58519;DHT22;44310;48.106;12.008;2023-02-03T09:31:23;14.30;86.90
58519;DHT22;44310;48.106;12.008;2023-02-03T09:33:50;14.30;86.70
58519;DHT22;44310;48.106;12.008;2023-02-03T09:36:17;14.30;86.60
58519;DHT22;44310;48.106;12.008;2023-02-03T09:38:44;14.30;86.50
58519;DHT22;44310;48.106;12.008;2023-02-03T09:41:42;14.30;86.40
58519;DHT22;44310;48.106;12.008;2023-02-03T09:44:30;14.30;86.30
58519;DHT22;44310;48.106;12.008;2023-02-03T09:47:03;14.30;86.40
58519;DHT22;44310;48.106;12.008;2023-02-03T09:49:42;14.30;86.20
58519;DHT22;44310;48.106;12.008;2023-02-03T09:57:24;14.70;86.40
58519;DHT22;44310;48.106;12.008;2023-02-03T09:59:55;14.40;86.40
58519;DHT22;44310;48.106;12.008;2023-02-03T10:07:55;14.40;86.50
58519;DHT22;44310;48.106;12.008;2023-02-03T10:10:40;14.40;86.70
58519;DHT22;44310;48.106;12.008;2023-02-03T10:13:30;14.20;82.30
58519;DHT22;44310;48.106;12.008;2023-02-03T10:18:52;12.90;75.60
58519;DHT22;44310;48.106;12.008;2023-02-03T10:21:40;13.00;80.40
58519;DHT22;44310;48.106;12.008;2023-02-03T10:24:15;13.10;80.80
58519;DHT22;44310;48.106;12.008;2023-02-03T10:26:43;13.30;80.60
58519;DHT22;44310;48.106;12.008;2023-02-03T10:31:54;13.60;81.20
58519;DHT22;44310;48.106;12.008;2023-02-03T10:34:24;13.80;81.30
58519;DHT22;44310;48.106;12.008;2023-02-03T10:36:57;14.00;81.30
58519;DHT22;44310;48.106;12.008;2023-02-03T10:39:46;14.00;82.00
58519;DHT22;44310;48.106;12.008;2023-02-03T10:42:15;13.70;75.00
58519;DHT22;44310;48.106;12.008;2023-02-03T10:44:51;13.20;75.10
58519;DHT22;44310;48.106;12.008;2023-02-03T10:49:54;12.90;77.10
58519;DHT22;44310;48.106;12.008;2023-02-03T10:52:33;12.80;74.50
58519;DHT22;44310;48.106;12.008;2023-02-03T10:55:08;12.60;74.40
58519;DHT22;44310;48.106;12.008;2023-02-03T10:57:55;12.70;75.20
58519;DHT22;44310;48.106;12.008;2023-02-03T11:00:28;12.80;77.50
58519;DHT22;44310;48.106;12.008;2023-02-03T11:03:22;12.80;70.70
58519;DHT22;44310;48.106;12.008;2023-02-03T11:06:06;12.70;76.30
58519;DHT22;44310;48.106;12.008;2023-02-03T11:08:36;13.00;78.80
58519;DHT22;44310;48.106;12.008;2023-02-03T11:11:06;13.20;79.70
58519;DHT22;44310;48.106;12.008;2023-02-03T11:13:34;13.40;80.40
58519;DHT22;44310;48.106;12.008;2023-02-03T11:16:17;13.70;81.00
58519;DHT22;44310;48.106;12.008;2023-02-03T11:18:54;13.70;81.80
58519;DHT22;44310;48.106;12.008;2023-02-03T11:24:24;13.90;82.60
58519;DHT22;44310;48.106;12.008;2023-02-03T11:29:38;14.10;83.40
58519;DHT22;44310;48.106;12.008;2023-02-03T11:32:28;14.10;83.80
58519;DHT22;44310;48.106;12.008;2023-02-03T11:35:02;14.20;84.20
58519;DHT22;44310;48.106;12.008;2023-02-03T11:37:43;14.20;84.50
58519;DHT22;44310;48.106;12.008;2023-02-03T11:45:29;14.20;85.10
58519;DHT22;44310;48.106;12.008;2023-02-03T11:48:00;14.20;85.30
58519;DHT22;44310;48.106;12.008;2023-02-03T11:59:00;14.30;86.50
58519;DHT22;44310;48.106;12.008;2023-02-03T12:01:48;14.30;86.70
58519;DHT22;44310;48.106;12.008;2023-02-03T12:12:44;14.30;87.00
58519;DHT22;44310;48.106;12.008;2023-02-03T12:15:48;14.30;86.90
58519;DHT22;44310;48.106;12.008;2023-02-03T12:21:25;14.30;86.90
58519;DHT22;44310;48.106;12.008;2023-02-03T12:26:55;14.40;86.70
58519;DHT22;44310;48.106;12.008;2023-02-03T12:29:29;14.30;86.60
58519;DHT22;44310;48.106;12.008;2023-02-03T12:34:52;14.30;86.50
58519;DHT22;44310;48.106;12.008;2023-02-03T12:37:28;14.30;86.40
58519;DHT22;44310;48.106;12.008;2023-02-03T12:40:13;14.30;86.30
58519;DHT22;44310;48.106;12.008;2023-02-03T12:43:11;14.30;86.30
58519;DHT22;44310;48.106;12.008;2023-02-03T12:45:41;14.60;86.90
58519;DHT22;44310;48.106;12.008;2023-02-03T12:48:13;14.20;86.10
58519;DHT22;44310;48.106;12.008;2023-02-03T12:50:49;15.20;86.40
58519;DHT22;44310;48.106;12.008;2023-02-03T12:53:34;14.30;86.00
58519;DHT22;44310;48.106;12.008;2023-02-03T12:56:12;14.30;86.20
58519;DHT22;44310;48.106;12.008;2023-02-03T12:58:48;14.30;86.30
58519;DHT22;44310;48.106;12.008;2023-02-03T13:01:22;14.40;86.40
58519;DHT22;44310;48.106;12.008;2023-02-03T13:04:09;14.40;86.20
58519;DHT22;44310;48.106;12.008;2023-02-03T13:06:59;14.30;86.50
58519;DHT22;44310;48.106;12.008;2023-02-03T13:09:50;14.40;86.70
58519;DHT22;44310;48.106;12.008;2023-02-03T13:12:35;14.40;86.60
58519;DHT22;44310;48.106;12.008;2023-02-03T13:15:05;14.40;86.70
58519;DHT22;44310;48.106;12.008;2023-02-03T13:18:00;14.30;86.70
58519;DHT22;44310;48.106;12.008;2023-02-03T13:20:30;14.30;86.60
58519;DHT22;44310;48.106;12.008;2023-02-03T13:23:07;13.60;86.30
58519;DHT22;44310;48.106;12.008;2023-02-03T13:37:24;14.30;86.30
58519;DHT22;44310;48.106;12.008;2023-02-03T13:40:20;14.30;86.10
58519;DHT22;44310;48.106;12.008;2023-02-03T13:42:54;14.30;86.00
58519;DHT22;44310;48.106;12.008;2023-02-03T13:45:42;14.00;85.70
58519;DHT22;44310;48.106;12.008;2023-02-03T13:48:22;14.30;85.80
58519;DHT22;44310;48.106;12.008;2023-02-03T13:51:13;14.30;86.10
58519;DHT22;44310;48.106;12.008;2023-02-03T13:53:43;14.30;86.30
58519;DHT22;44310;48.106;12.008;2023-02-03T13:56:19;14.30;86.00
58519;DHT22;44310;48.106;12.008;2023-02-03T13:59:25;14.30;86.00
58519;DHT22;44310;48.106;12.008;2023-02-03T14:07:37;14.40;85.80
58519;DHT22;44310;48.106;12.008;2023-02-03T14:12:54;14.40;85.80
58519;DHT22;44310;48.106;12.008;2023-02-03T14:17:55;14.30;85.50
58519;DHT22;44310;48.106;12.008;2023-02-03T14:23:21;14.40;85.70
58519;DHT22;44310;48.106;12.008;2023-02-03T14:25:54;14.40;85.60
58519;DHT22;44310;48.106;12.008;2023-02-03T14:28:28;14.40;85.70
58519;DHT22;44310;48.106;12.008;2023-02-03T14:31:09;14.40;85.50
58519;DHT22;44310;48.106;12.008;2023-02-03T14:36:31;15.00;85.60
58519;DHT22;44310;48.106;12.008;2023-02-03T14:39:31;14.30;85.10
58519;DHT22;44310;48.106;12.008;2023-02-03T14:47:12;14.30;84.80
58519;DHT22;44310;48.106;12.008;2023-02-03T14:52:56;14.30;84.60
58519;DHT22;44310;48.106;12.008;2023-02-03T14:58:02;14.30;84.40
58519;DHT22;44310;48.106;12.008;2023-02-03T15:00:33;14.30;84.30
58519;DHT22;44310;48.106;12.008;2023-02-03T15:05:44;14.30;84.00
58519;DHT22;44310;48.106;12.008;2023-02-03T15:08:31;14.30;83.90
58519;DHT22;44310;48.106;12.008;2023-02-03T15:10:59;14.30;84.10
58519;DHT22;44310;48.106;12.008;2023-02-03T15:13:29;14.30;84.10
58519;DHT22;44310;48.106;12.008;2023-02-03T15:16:01;14.10;83.90
58519;DHT22;44310;48.106;12.008;2023-02-03T15:18:34;14.30;84.30
58519;DHT22;44310;48.106;12.008;2023-02-03T15:21:03;14.40;84.20
58519;DHT22;44310;48.106;12.008;2023-02-03T15:23:38;14.40;84.50
58519;DHT22;44310;48.106;12.008;2023-02-03T15:26:14;14.40;84.20
58519;DHT22;44310;48.106;12.008;2023-02-03T15:28:42;14.40;84.10
58519;DHT22;44310;48.106;12.008;2023-02-03T15:31:27;14.40;83.50
58519;DHT22;44310;48.106;12.008;2023-02-03T15:33:57;14.40;84.00
58519;DHT22;44310;48.106;12.008;2023-02-03T15:36:37;14.70;82.70
58519;DHT22;44310;48.106;12.008;2023-02-03T15:41:49;14.30;84.40
58519;DHT22;44310;48.106;12.008;2023-02-03T15:44:35;14.60;85.20
58519;DHT22;44310;48.106;12.008;2023-02-03T15:47:05;14.50;85.80
58519;DHT22;44310;48.106;12.008;2023-02-03T15:49:42;14.50;86.70
58519;DHT22;44310;48.106;12.008;2023-02-03T15:52:21;14.50;87.30
58519;DHT22;44310;48.106;12.008;2023-02-03T15:55:01;14.50;87.90
58519;DHT22;44310;48.106;12.008;2023-02-03T15:57:31;14.60;88.60
58519;DHT22;44310;48.106;12.008;2023-02-03T16:00:10;14.60;88.60
58519;DHT22;44310;48.106;12.008;2023-02-03T16:02:42;14.60;89.40
58519;DHT22;44310;48.106;12.008;2023-02-03T16:05:20;14.30;89.80
58519;DHT22;44310;48.106;12.008;2023-02-03T16:07:48;14.60;90.40
58519;DHT22;44310;48.106;12.008;2023-02-03T16:10:31;14.60;90.10
58519;DHT22;44310;48.106;12.008;2023-02-03T16:13:18;14.60;90.50
58519;DHT22;44310;48.106;12.008;2023-02-03T16:16:04;15.20;90.90
58519;DHT22;44310;48.106;12.008;2023-02-03T16:18:34;14.70;90.70
58519;DHT22;44310;48.106;12.008;2023-02-03T16:21:06;14.70;90.70
58519;DHT22;44310;48.106;12.008;2023-02-03T16:23:49;14.60;88.90
58519;DHT22;44310;48.106;12.008;2023-02-03T16:26:18;14.50;90.10
58519;DHT22;44310;48.106;12.008;2023-02-03T16:31:54;14.40;89.40
58519;DHT22;44310;48.106;12.008;2023-02-03T16:34:40;14.30;89.70
58519;DHT22;44310;48.106;12.008;2023-02-03T16:37:29;14.40;90.10
58519;DHT22;44310;48.106;12.008;2023-02-03T16:40:20;14.40;90.20
58519;DHT22;44310;48.106;12.008;2023-02-03T16:43:12;14.50;90.20
58519;DHT22;44310;48.106;12.008;2023-02-03T16:45:59;14.50;90.20
58519;DHT22;44310;48.106;12.008;2023-02-03T16:48:45;14.60;90.30
58519;DHT22;44310;48.106;12.008;2023-02-03T16:51:38;13.90;90.10
58519;DHT22;44310;48.106;12.008;2023-02-03T16:54:10;14.50;90.10
58519;DHT22;44310;48.106;12.008;2023-02-03T16:56:39;14.80;90.20
58519;DHT22;44310;48.106;12.008;2023-02-03T16:59:06;14.60;90.20
58519;DHT22;44310;48.106;12.008;2023-02-03T17:01:33;14.60;90.10
58519;DHT22;44310;48.106;12.008;2023-02-03T17:04:02;14.50;90.10
58519;DHT22;44310;48.106;12.008;2023-02-03T17:06:29;14.50;90.20
58519;DHT22;44310;48.106;12.008;2023-02-03T17:08:56;14.50;90.10
58519;DHT22;44310;48.106;12.008;2023-02-03T17:11:25;14.50;90.10
58519;DHT22;44310;48.106;12.008;2023-02-03T17:13:53;14.80;90.40
58519;DHT22;44310;48.106;12.008;2023-02-03T17:16:22;14.50;90.20
58519;DHT22;44310;48.106;12.008;2023-02-03T17:18:49;14.80;90.30
58519;DHT22;44310;48.106;12.008;2023-02-03T17:21:28;14.50;90.30
58519;DHT22;44310;48.106;12.008;2023-02-03T17:23:57;14.30;90.30
58519;DHT22;44310;48.106;12.008;2023-02-03T17:26:24;14.50;90.30
58519;DHT22;44310;48.106;12.008;2023-02-03T17:28:52;14.50;90.40
58519;DHT22;44310;48.106;12.008;2023-02-03T17:31:19;14.50;90.40
58519;DHT22;44310;48.106;12.008;2023-02-03T17:33:50;14.50;90.30
58519;DHT22;44310;48.106;12.008;2023-02-03T17:36:18;14.50;90.30
58519;DHT22;44310;48.106;12.008;2023-02-03T17:38:48;14.50;90.30
58519;DHT22;44310;48.106;12.008;2023-02-03T17:41:33;14.50;90.30
58519;DHT22;44310;48.106;12.008;2023-02-03T17:44:18;14.40;90.20
58519;DHT22;44310;48.106;12.008;2023-02-03T17:47:03;14.20;90.20
58519;DHT22;44310;48.106;12.008;2023-02-03T17:49:47;14.60;90.30
58519;DHT22;44310;48.106;12.008;2023-02-03T17:52:32;14.50;90.20